sensor_id;sensor_type;location;lat;lon;timestamp;pressure;altitude;pressure_sealevel;temperature;humidity
21086;BME280;34247;50.064;19.970;2023-02-03T00:00:28;99790.81;;;3.63;86.58
21086;BME280;34247;50.064;19.970;2023-02-03T00:01:37;99798.66;;;3.65;86.57
21086;BME280;34247;50.064;19.970;2023-02-03T00:02:41;99797.63;;;3.69;86.43
21086;BME280;34247;50.064;19.970;2023-02-03T00:03:46;99794.13;;;3.68;86.19
21086;BME280;34247;50.064;19.970;2023-02-03T00:04:51;99795.81;;;3.71;86.21
21086;BME280;34247;50.064;19.970;2023-02-03T00:05:55;99804.56;;;3.71;86.35
21086;BME280;34247;50.064;19.970;2023-02-03T00:06:59;99800.41;;;3.64;86.24
21086;BME280;34247;50.064;19.970;2023-02-03T00:08:04;99799.75;;;3.57;86.92
21086;BME280;34247;50.064;19.970;2023-02-03T00:09:14;99800.47;;;3.63;86.73
21086;BME280;34247;50.064;19.970;2023-02-03T00:10:19;99802.00;;;3.70;86.54
21086;BME280;34247;50.064;19.970;2023-02-03T00:11:28;99807.19;;;3.71;86.49
21086;BME280;34247;50.064;19.970;2023-02-03T00:12:36;99802.25;;;3.60;86.51
21086;BME280;34247;50.064;19.970;2023-02-03T00:13:40;99796.94;;;3.62;86.48
21086;BME280;34247;50.064;19.970;2023-02-03T00:14:44;99797.78;;;3.64;86.50
21086;BME280;34247;50.064;19.970;2023-02-03T00:15:48;99799.38;;;3.68;86.63
21086;BME280;34247;50.064;19.970;2023-02-03T00:16:53;99806.41;;;3.68;86.79
21086;BME280;34247;50.064;19.970;2023-02-03T00:17:58;99793.19;;;3.71;86.62
21086;BME280;34247;50.064;19.970;2023-02-03T00:19:02;99801.75;;;3.76;86.23
21086;BME280;34247;50.064;19.970;2023-02-03T00:20:18;99795.28;;;3.59;86.11
21086;BME280;34247;50.064;19.970;2023-02-03T00:21:22;99797.72;;;3.66;86.45
21086;BME280;34247;50.064;19.970;2023-02-03T00:22:27;99805.59;;;3.66;86.25
21086;BME280;34247;50.064;19.970;2023-02-03T00:23:31;99804.63;;;3.68;86.43
21086;BME280;34247;50.064;19.970;2023-02-03T00:24:37;99814.47;;;3.62;86.52
21086;BME280;34247;50.064;19.970;2023-02-03T00:25:43;99815.19;;;3.67;86.35
21086;BME280;34247;50.064;19.970;2023-02-03T00:26:58;99817.63;;;3.73;86.42
21086;BME280;34247;50.064;19.970;2023-02-03T00:28:02;99830.94;;;3.67;86.23
21086;BME280;34247;50.064;19.970;2023-02-03T00:29:06;99824.72;;;3.69;86.36
21086;BME280;34247;50.064;19.970;2023-02-03T00:30:16;99822.03;;;3.72;86.09
21086;BME280;34247;50.064;19.970;2023-02-03T00:31:23;99827.28;;;3.72;86.01
21086;BME280;34247;50.064;19.970;2023-02-03T00:32:30;99829.78;;;3.77;86.17
21086;BME280;34247;50.064;19.970;2023-02-03T00:33:35;99827.28;;;3.72;85.88
21086;BME280;34247;50.064;19.970;2023-02-03T00:34:44;99831.50;;;3.76;85.98
21086;BME280;34247;50.064;19.970;2023-02-03T00:35:47;99830.63;;;3.77;86.04
21086;BME280;34247;50.064;19.970;2023-02-03T00:36:56;99834.91;;;3.80;85.92
21086;BME280;34247;50.064;19.970;2023-02-03T00:38:04;99829.59;;;3.81;85.75
21086;BME280;34247;50.064;19.970;2023-02-03T00:39:08;99836.69;;;3.79;85.42
21086;BME280;34247;50.064;19.970;2023-02-03T00:40:24;99836.72;;;3.78;85.59
21086;BME280;34247;50.064;19.970;2023-02-03T00:41:32;99834.97;;;3.78;85.63
21086;BME280;34247;50.064;19.970;2023-02-03T00:42:37;99844.69;;;3.75;85.31
21086;BME280;34247;50.064;19.970;2023-02-03T00:43:42;99839.38;;;3.76;85.61
21086;BME280;34247;50.064;19.970;2023-02-03T00:44:54;99844.63;;;3.78;85.43
21086;BME280;34247;50.064;19.970;2023-02-03T00:45:59;99856.06;;;3.75;85.50
21086;BME280;34247;50.064;19.970;2023-02-03T00:47:06;99844.63;;;3.78;85.52
21086;BME280;34247;50.064;19.970;2023-02-03T00:48:21;99855.97;;;3.78;85.74
21086;BME280;34247;50.064;19.970;2023-02-03T00:49:28;99848.19;;;3.75;85.45
21086;BME280;34247;50.064;19.970;2023-02-03T00:50:32;99845.47;;;3.78;85.22
21086;BME280;34247;50.064;19.970;2023-02-03T00:51:44;99850.84;;;3.74;85.38
21086;BME280;34247;50.064;19.970;2023-02-03T00:52:54;99850.00;;;3.73;85.58
21086;BME280;34247;50.064;19.970;2023-02-03T00:53:58;99849.16;;;3.73;85.30
21086;BME280;34247;50.064;19.970;2023-02-03T00:55:10;99850.84;;;3.74;85.44
21086;BME280;34247;50.064;19.970;2023-02-03T00:56:29;99846.56;;;3.71;85.28
21086;BME280;34247;50.064;19.970;2023-02-03T00:57:32;99846.50;;;3.73;85.01
21086;BME280;34247;50.064;19.970;2023-02-03T00:58:40;99843.94;;;3.71;85.05
21086;BME280;34247;50.064;19.970;2023-02-03T00:59:44;99847.72;;;3.63;84.68
21086;BME280;34247;50.064;19.970;2023-02-03T01:00:49;99847.66;;;3.64;84.95
21086;BME280;34247;50.064;19.970;2023-02-03T01:01:55;99854.56;;;3.67;84.99
21086;BME280;34247;50.064;19.970;2023-02-03T01:03:02;99857.31;;;3.64;84.89
21086;BME280;34247;50.064;19.970;2023-02-03T01:04:07;99858.84;;;3.71;84.86
21086;BME280;34247;50.064;19.970;2023-02-03T01:05:12;99856.16;;;3.72;84.92
21086;BME280;34247;50.064;19.970;2023-02-03T01:06:19;99853.41;;;3.77;85.03
21086;BME280;34247;50.064;19.970;2023-02-03T01:07:31;99855.13;;;3.78;84.52
21086;BME280;34247;50.064;19.970;2023-02-03T01:08:35;99850.78;;;3.77;84.43
21086;BME280;34247;50.064;19.970;2023-02-03T01:09:44;99864.78;;;3.76;83.81
21086;BME280;34247;50.064;19.970;2023-02-03T01:10:49;99853.41;;;3.77;84.42
21086;BME280;34247;50.064;19.970;2023-02-03T01:11:58;99858.16;;;3.64;83.25
21086;BME280;34247;50.064;19.970;2023-02-03T01:13:03;99858.88;;;3.69;83.52
21086;BME280;34247;50.064;19.970;2023-02-03T01:14:10;99861.31;;;3.75;83.31
21086;BME280;34247;50.064;19.970;2023-02-03T01:15:22;99861.47;;;3.71;83.03
21086;BME280;34247;50.064;19.970;2023-02-03T01:16:29;99865.63;;;3.78;83.17
21086;BME280;34247;50.064;19.970;2023-02-03T01:17:37;99860.38;;;3.76;82.80
21086;BME280;34247;50.064;19.970;2023-02-03T01:18:41;99859.50;;;3.77;83.13
21086;BME280;34247;50.064;19.970;2023-02-03T01:19:51;99855.91;;;3.80;83.14
21086;BME280;34247;50.064;19.970;2023-02-03T01:21:07;99863.97;;;3.74;81.98
21086;BME280;34247;50.064;19.970;2023-02-03T01:22:54;99863.66;;;3.56;80.33
21086;BME280;34247;50.064;19.970;2023-02-03T01:24:00;99864.56;;;3.55;80.37
21086;BME280;34247;50.064;19.970;2023-02-03T01:25:13;99864.66;;;3.52;79.75
21086;BME280;34247;50.064;19.970;2023-02-03T01:26:24;99860.41;;;3.48;79.65
21086;BME280;34247;50.064;19.970;2023-02-03T01:27:30;99855.16;;;3.48;79.53
21086;BME280;34247;50.064;19.970;2023-02-03T01:28:35;99855.84;;;3.55;79.61
21086;BME280;34247;50.064;19.970;2023-02-03T01:29:40;99861.84;;;3.58;79.87
21086;BME280;34247;50.064;19.970;2023-02-03T01:30:45;99863.66;;;3.56;80.02
21086;BME280;34247;50.064;19.970;2023-02-03T01:31:55;99853.16;;;3.56;80.86
21086;BME280;34247;50.064;19.970;2023-02-03T01:33:07;99854.19;;;3.51;82.21
21086;BME280;34247;50.064;19.970;2023-02-03T01:34:21;99845.41;;;3.52;82.31
21086;BME280;34247;50.064;19.970;2023-02-03T01:35:25;99857.72;;;3.50;83.46
21086;BME280;34247;50.064;19.970;2023-02-03T01:36:32;99859.34;;;3.54;83.43
21086;BME280;34247;50.064;19.970;2023-02-03T01:37:36;99863.72;;;3.53;83.71
21086;BME280;34247;50.064;19.970;2023-02-03T01:38:40;99855.09;;;3.50;84.29
21086;BME280;34247;50.064;19.970;2023-02-03T01:39:44;99865.88;;;3.41;85.06
21086;BME280;34247;50.064;19.970;2023-02-03T01:40:48;99864.31;;;3.35;85.63
21086;BME280;34247;50.064;19.970;2023-02-03T01:41:54;99862.31;;;3.43;85.65
21086;BME280;34247;50.064;19.970;2023-02-03T01:42:58;99861.63;;;3.37;85.76
21086;BME280;34247;50.064;19.970;2023-02-03T01:45:44;99860.75;;;3.36;86.54
21086;BME280;34247;50.064;19.970;2023-02-03T01:46:50;99867.56;;;3.43;86.44
21086;BME280;34247;50.064;19.970;2023-02-03T01:48:03;99856.16;;;3.44;86.08
21086;BME280;34247;50.064;19.970;2023-02-03T01:49:35;99852.78;;;3.41;86.24
21086;BME280;34247;50.064;19.970;2023-02-03T01:51:04;99851.88;;;3.40;86.47
21086;BME280;34247;50.064;19.970;2023-02-03T01:52:31;99851.00;;;3.41;86.19
21086;BME280;34247;50.064;19.970;2023-02-03T01:53:37;99852.00;;;3.37;86.97
21086;BME280;34247;50.064;19.970;2023-02-03T01:54:45;99859.81;;;3.39;87.08
21086;BME280;34247;50.064;19.970;2023-02-03T01:55:55;99856.03;;;3.47;86.85
21086;BME280;34247;50.064;19.970;2023-02-03T01:57:19;99855.06;;;3.51;86.52
21086;BME280;34247;50.064;19.970;2023-02-03T01:58:39;99858.47;;;3.53;86.08
21086;BME280;34247;50.064;19.970;2023-02-03T01:59:48;99850.66;;;3.52;86.26
21086;BME280;34247;50.064;19.970;2023-02-03T02:01:01;99851.47;;;3.54;85.95
21086;BME280;34247;50.064;19.970;2023-02-03T02:02:14;99854.06;;;3.55;85.78
21086;BME280;34247;50.064;19.970;2023-02-03T02:03:51;99860.47;;;3.45;86.03
21086;BME280;34247;50.064;19.970;2023-02-03T02:05:28;99853.41;;;3.47;85.76
21086;BME280;34247;50.064;19.970;2023-02-03T02:06:44;99851.69;;;3.46;85.56
21086;BME280;34247;50.064;19.970;2023-02-03T02:08:02;99844.00;;;3.42;85.68
21086;BME280;34247;50.064;19.970;2023-02-03T02:09:14;99840.44;;;3.43;85.96
21086;BME280;34247;50.064;19.970;2023-02-03T02:10:38;99844.91;;;3.39;85.48
21086;BME280;34247;50.064;19.970;2023-02-03T02:11:55;99837.91;;;3.40;85.12
21086;BME280;34247;50.064;19.970;2023-02-03T02:13:04;99835.94;;;3.46;84.97
21086;BME280;34247;50.064;19.970;2023-02-03T02:14:15;99837.03;;;3.39;84.67
21086;BME280;34247;50.064;19.970;2023-02-03T02:31:59;99832.09;;;3.30;82.78
21086;BME280;34247;50.064;19.970;2023-02-03T02:36:07;99838.13;;;3.32;82.51
21086;BME280;34247;50.064;19.970;2023-02-03T02:37:49;99836.03;;;3.15;82.68
21086;BME280;34247;50.064;19.970;2023-02-03T02:39:15;99834.97;;;3.21;83.15
21086;BME280;34247;50.064;19.970;2023-02-03T02:42:07;99841.03;;;3.23;82.94
21086;BME280;34247;50.064;19.970;2023-02-03T02:45:16;99842.97;;;3.16;82.47
21086;BME280;34247;50.064;19.970;2023-02-03T02:46:48;99842.94;;;3.18;82.53
21086;BME280;34247;50.064;19.970;2023-02-03T02:48:52;99845.56;;;3.18;82.56
21086;BME280;34247;50.064;19.970;2023-02-03T02:50:19;99838.66;;;3.15;82.90
21086;BME280;34247;50.064;19.970;2023-02-03T02:51:31;99843.13;;;3.12;82.71
21086;BME280;34247;50.064;19.970;2023-02-03T02:52:45;99845.66;;;3.15;83.02
21086;BME280;34247;50.064;19.970;2023-02-03T02:54:07;99847.38;;;3.16;82.36
21086;BME280;34247;50.064;19.970;2023-02-03T02:55:30;99850.00;;;3.16;82.23
21086;BME280;34247;50.064;19.970;2023-02-03T02:56:40;99846.47;;;3.17;82.32
21086;BME280;34247;50.064;19.970;2023-02-03T02:57:53;99836.88;;;3.16;82.02
21086;BME280;34247;50.064;19.970;2023-02-03T02:59:03;99835.16;;;3.15;82.13
21086;BME280;34247;50.064;19.970;2023-02-03T03:00:35;99843.13;;;3.12;81.86
21086;BME280;34247;50.064;19.970;2023-02-03T03:01:57;99837.22;;;3.03;82.31
21086;BME280;34247;50.064;19.970;2023-02-03T03:03:21;99831.13;;;3.03;82.60
21086;BME280;34247;50.064;19.970;2023-02-03T03:04:31;99828.66;;;2.98;81.98
21086;BME280;34247;50.064;19.970;2023-02-03T03:05:51;99825.16;;;2.98;82.34
21086;BME280;34247;50.064;19.970;2023-02-03T03:07:07;99822.28;;;3.07;81.99
21086;BME280;34247;50.064;19.970;2023-02-03T03:08:26;99821.31;;;3.10;81.94
21086;BME280;34247;50.064;19.970;2023-02-03T03:10:06;99818.88;;;3.03;81.50
21086;BME280;34247;50.064;19.970;2023-02-03T03:11:16;99817.16;;;3.02;81.74
21086;BME280;34247;50.064;19.970;2023-02-03T03:13:38;99807.75;;;2.95;81.65
21086;BME280;34247;50.064;19.970;2023-02-03T03:15:26;99804.41;;;2.90;81.12
21086;BME280;34247;50.064;19.970;2023-02-03T03:16:36;99797.53;;;2.86;81.55
21086;BME280;34247;50.064;19.970;2023-02-03T03:18:26;99797.63;;;2.83;81.69
21086;BME280;34247;50.064;19.970;2023-02-03T03:19:42;99797.63;;;2.83;81.88
21086;BME280;34247;50.064;19.970;2023-02-03T03:20:59;99796.78;;;2.83;82.14
21086;BME280;34247;50.064;19.970;2023-02-03T03:22:21;99794.22;;;2.80;82.28
21086;BME280;34247;50.064;19.970;2023-02-03T03:23:38;99788.00;;;2.84;82.33
21086;BME280;34247;50.064;19.970;2023-02-03T03:24:51;99795.88;;;2.82;82.55
21086;BME280;34247;50.064;19.970;2023-02-03T03:26:26;99794.25;;;2.78;82.38
21086;BME280;34247;50.064;19.970;2023-02-03T03:27:39;99785.66;;;2.73;82.61
21086;BME280;34247;50.064;19.970;2023-02-03T03:29:04;99785.75;;;2.70;83.07
21086;BME280;34247;50.064;19.970;2023-02-03T03:30:32;99806.63;;;2.73;82.99
21086;BME280;34247;50.064;19.970;2023-02-03T03:31:47;99812.94;;;2.66;82.99
21086;BME280;34247;50.064;19.970;2023-02-03T03:32:52;99809.78;;;2.53;83.50
21086;BME280;34247;50.064;19.970;2023-02-03T03:33:56;99812.25;;;2.59;83.47
21086;BME280;34247;50.064;19.970;2023-02-03T03:35:02;99818.25;;;2.64;83.20
21086;BME280;34247;50.064;19.970;2023-02-03T03:38:41;99829.78;;;2.57;83.50
21086;BME280;34247;50.064;19.970;2023-02-03T03:40:29;99821.03;;;2.58;83.33
21086;BME280;34247;50.064;19.970;2023-02-03T03:41:43;99822.03;;;2.54;83.41
21086;BME280;34247;50.064;19.970;2023-02-03T03:43:07;99814.19;;;2.53;83.67
21086;BME280;34247;50.064;19.970;2023-02-03T03:44:17;99822.03;;;2.54;83.34
21086;BME280;34247;50.064;19.970;2023-02-03T03:45:43;99823.75;;;2.55;82.88
21086;BME280;34247;50.064;19.970;2023-02-03T03:47:14;99819.34;;;2.56;82.89
21086;BME280;34247;50.064;19.970;2023-02-03T03:48:28;99825.88;;;2.41;82.72
21086;BME280;34247;50.064;19.970;2023-02-03T03:49:37;99822.25;;;2.45;82.89
21086;BME280;34247;50.064;19.970;2023-02-03T03:50:57;99830.00;;;2.49;82.77
21086;BME280;34247;50.064;19.970;2023-02-03T03:52:09;99821.34;;;2.47;82.59
21086;BME280;34247;50.064;19.970;2023-02-03T03:53:17;99823.09;;;2.45;82.69
21086;BME280;34247;50.064;19.970;2023-02-03T03:54:25;99822.25;;;2.45;82.45
21086;BME280;34247;50.064;19.970;2023-02-03T03:55:51;99820.47;;;2.47;82.17
21086;BME280;34247;50.064;19.970;2023-02-03T03:57:36;99816.09;;;2.47;82.14
21086;BME280;34247;50.064;19.970;2023-02-03T03:58:47;99806.66;;;2.40;82.00
21086;BME280;34247;50.064;19.970;2023-02-03T03:59:53;99804.06;;;2.40;81.91
21086;BME280;34247;50.064;19.970;2023-02-03T04:01:05;99803.97;;;2.43;82.10
21086;BME280;34247;50.064;19.970;2023-02-03T04:02:12;99792.91;;;2.32;82.21
21086;BME280;34247;50.064;19.970;2023-02-03T04:03:24;99793.56;;;2.40;82.10
21086;BME280;34247;50.064;19.970;2023-02-03T04:04:38;99790.94;;;2.40;81.73
21086;BME280;34247;50.064;19.970;2023-02-03T04:05:50;99785.81;;;2.36;82.11
21086;BME280;34247;50.064;19.970;2023-02-03T04:06:58;99794.53;;;2.36;81.90
21086;BME280;34247;50.064;19.970;2023-02-03T04:08:06;99786.78;;;2.33;81.98
21086;BME280;34247;50.064;19.970;2023-02-03T04:09:15;99785.81;;;2.36;82.10
21086;BME280;34247;50.064;19.970;2023-02-03T04:10:29;99790.19;;;2.35;82.25
21086;BME280;34247;50.064;19.970;2023-02-03T04:11:35;99786.72;;;2.35;82.19
21086;BME280;34247;50.064;19.970;2023-02-03T04:12:59;99780.75;;;2.30;82.20
21086;BME280;34247;50.064;19.970;2023-02-03T04:14:06;99780.75;;;2.30;82.40
21086;BME280;34247;50.064;19.970;2023-02-03T04:15:12;99772.94;;;2.28;82.38
21086;BME280;34247;50.064;19.970;2023-02-03T04:16:22;99779.81;;;2.32;82.53
21086;BME280;34247;50.064;19.970;2023-02-03T04:17:27;99777.34;;;2.26;82.41
21086;BME280;34247;50.064;19.970;2023-02-03T04:18:31;99782.66;;;2.25;82.55
21086;BME280;34247;50.064;19.970;2023-02-03T04:19:36;99777.63;;;2.15;82.81
21086;BME280;34247;50.064;19.970;2023-02-03T04:20:50;99781.00;;;2.20;82.93
21086;BME280;34247;50.064;19.970;2023-02-03T04:21:56;99782.81;;;2.17;83.09
21086;BME280;34247;50.064;19.970;2023-02-03T04:23:01;99782.00;;;2.15;82.84
21086;BME280;34247;50.064;19.970;2023-02-03T04:24:06;99783.81;;;2.13;82.86
21086;BME280;34247;50.064;19.970;2023-02-03T04:25:14;99775.06;;;2.14;83.09
21086;BME280;34247;50.064;19.970;2023-02-03T04:26:21;99780.38;;;2.11;82.78
21086;BME280;34247;50.064;19.970;2023-02-03T04:27:27;99773.50;;;2.07;83.11
21086;BME280;34247;50.064;19.970;2023-02-03T04:28:31;99777.06;;;2.03;82.85
21086;BME280;34247;50.064;19.970;2023-02-03T04:29:35;99777.88;;;2.06;82.94
21086;BME280;34247;50.064;19.970;2023-02-03T04:30:46;99770.91;;;2.05;82.77
21086;BME280;34247;50.064;19.970;2023-02-03T04:31:52;99776.06;;;2.08;82.91
21086;BME280;34247;50.064;19.970;2023-02-03T04:32:58;99780.38;;;2.11;82.67
21086;BME280;34247;50.064;19.970;2023-02-03T04:34:05;99776.13;;;2.07;82.72
21086;BME280;34247;50.064;19.970;2023-02-03T04:35:14;99779.88;;;1.95;82.85
21086;BME280;34247;50.064;19.970;2023-02-03T04:36:25;99786.88;;;1.96;82.98
21086;BME280;34247;50.064;19.970;2023-02-03T04:37:31;99782.50;;;1.97;82.98
21086;BME280;34247;50.064;19.970;2023-02-03T04:38:35;99786.16;;;1.89;83.08
21086;BME280;34247;50.064;19.970;2023-02-03T04:39:42;99780.94;;;1.89;83.08
21086;BME280;34247;50.064;19.970;2023-02-03T04:40:47;99775.59;;;1.92;82.84
21086;BME280;34247;50.064;19.970;2023-02-03T04:41:58;99771.22;;;1.93;82.48
21086;BME280;34247;50.064;19.970;2023-02-03T04:43:07;99786.75;;;2.01;82.81
21086;BME280;34247;50.064;19.970;2023-02-03T04:44:16;99777.25;;;1.97;82.54
21086;BME280;34247;50.064;19.970;2023-02-03T04:45:27;99780.53;;;2.05;82.59
21086;BME280;34247;50.064;19.970;2023-02-03T04:46:33;99777.03;;;2.06;82.15
21086;BME280;34247;50.064;19.970;2023-02-03T04:47:44;99778.78;;;2.05;82.40
21086;BME280;34247;50.064;19.970;2023-02-03T04:48:52;99774.50;;;2.01;82.21
21086;BME280;34247;50.064;19.970;2023-02-03T04:49:55;99771.97;;;1.98;82.05
21086;BME280;34247;50.064;19.970;2023-02-03T04:51:06;99764.88;;;2.02;82.18
21086;BME280;34247;50.064;19.970;2023-02-03T04:52:19;99766.66;;;2.01;81.96
21086;BME280;34247;50.064;19.970;2023-02-03T04:53:27;99763.16;;;2.01;81.79
21086;BME280;34247;50.064;19.970;2023-02-03T04:54:37;99768.50;;;1.98;81.87
21086;BME280;34247;50.064;19.970;2023-02-03T04:55:47;99765.94;;;1.96;82.09
21086;BME280;34247;50.064;19.970;2023-02-03T04:56:53;99763.41;;;1.91;82.42
21086;BME280;34247;50.064;19.970;2023-02-03T04:58:00;99764.16;;;1.97;82.39
21086;BME280;34247;50.064;19.970;2023-02-03T04:59:06;99767.84;;;1.89;82.13
21086;BME280;34247;50.064;19.970;2023-02-03T05:00:17;99757.31;;;1.91;82.38
21086;BME280;34247;50.064;19.970;2023-02-03T05:01:23;99759.84;;;1.96;82.63
21086;BME280;34247;50.064;19.970;2023-02-03T05:02:29;99761.47;;;2.00;82.19
21086;BME280;34247;50.064;19.970;2023-02-03T05:03:33;99763.13;;;2.02;82.33
21086;BME280;34247;50.064;19.970;2023-02-03T05:04:41;99756.31;;;1.97;82.41
21086;BME280;34247;50.064;19.970;2023-02-03T05:05:48;99757.06;;;2.00;82.26
21086;BME280;34247;50.064;19.970;2023-02-03T05:06:51;99752.91;;;1.93;82.75
21086;BME280;34247;50.064;19.970;2023-02-03T05:08:00;99753.81;;;1.92;82.50
21086;BME280;34247;50.064;19.970;2023-02-03T05:09:07;99758.06;;;1.96;82.30
21086;BME280;34247;50.064;19.970;2023-02-03T05:10:16;99758.88;;;1.98;82.45
21086;BME280;34247;50.064;19.970;2023-02-03T05:11:34;99751.97;;;1.96;82.49
21086;BME280;34247;50.064;19.970;2023-02-03T05:12:41;99757.03;;;2.02;82.58
21086;BME280;34247;50.064;19.970;2023-02-03T05:13:48;99750.94;;;2.01;82.55
21086;BME280;34247;50.064;19.970;2023-02-03T05:14:54;99754.41;;;2.02;82.44
21086;BME280;34247;50.064;19.970;2023-02-03T05:16:02;99752.63;;;2.04;82.37
21086;BME280;34247;50.064;19.970;2023-02-03T05:17:07;99755.41;;;1.98;82.63
21086;BME280;34247;50.064;19.970;2023-02-03T05:18:14;99758.03;;;1.98;82.49
21086;BME280;34247;50.064;19.970;2023-02-03T05:19:29;99750.22;;;1.96;82.45
21086;BME280;34247;50.064;19.970;2023-02-03T05:20:35;99764.19;;;1.95;82.66
21086;BME280;34247;50.064;19.970;2023-02-03T05:21:46;99746.25;;;1.81;82.94
21086;BME280;34247;50.064;19.970;2023-02-03T05:22:51;99751.38;;;1.84;83.32
21086;BME280;34247;50.064;19.970;2023-02-03T05:23:59;99749.56;;;1.86;83.26
21086;BME280;34247;50.064;19.970;2023-02-03T05:25:04;99754.91;;;1.83;83.18
21086;BME280;34247;50.064;19.970;2023-02-03T05:26:08;99742.72;;;1.82;83.53
21086;BME280;34247;50.064;19.970;2023-02-03T05:27:20;99743.53;;;1.84;83.17
21086;BME280;34247;50.064;19.970;2023-02-03T05:28:24;99741.00;;;1.80;83.31
21086;BME280;34247;50.064;19.970;2023-02-03T05:29:28;99739.31;;;1.79;83.51
21086;BME280;34247;50.064;19.970;2023-02-03T05:30:33;99735.81;;;1.78;83.31
21086;BME280;34247;50.064;19.970;2023-02-03T05:31:43;99732.31;;;1.79;83.33
21086;BME280;34247;50.064;19.970;2023-02-03T05:32:51;99735.81;;;1.78;83.59
21086;BME280;34247;50.064;19.970;2023-02-03T05:33:58;99736.53;;;1.85;83.26
21086;BME280;34247;50.064;19.970;2023-02-03T05:35:05;99736.63;;;1.82;83.40
21086;BME280;34247;50.064;19.970;2023-02-03T05:36:13;99727.97;;;1.78;83.59
21086;BME280;34247;50.064;19.970;2023-02-03T05:37:16;99725.28;;;1.81;83.55
21086;BME280;34247;50.064;19.970;2023-02-03T05:38:21;99727.91;;;1.81;83.43
21086;BME280;34247;50.064;19.970;2023-02-03T05:39:25;99730.44;;;1.84;83.53
21086;BME280;34247;50.064;19.970;2023-02-03T05:40:29;99721.78;;;1.82;83.18
21086;BME280;34247;50.064;19.970;2023-02-03T05:41:51;99723.41;;;1.86;83.07
21086;BME280;34247;50.064;19.970;2023-02-03T05:42:55;99717.25;;;1.87;83.09
21086;BME280;34247;50.064;19.970;2023-02-03T05:43:58;99713.94;;;1.81;83.50
21086;BME280;34247;50.064;19.970;2023-02-03T05:45:03;99722.53;;;1.86;83.70
21086;BME280;34247;50.064;19.970;2023-02-03T05:46:13;99721.63;;;1.88;83.42
21086;BME280;34247;50.064;19.970;2023-02-03T05:47:18;99727.03;;;1.81;83.72
21086;BME280;34247;50.064;19.970;2023-02-03T05:48:28;99720.88;;;1.83;83.61
21086;BME280;34247;50.064;19.970;2023-02-03T05:49:37;99722.69;;;1.80;83.87
21086;BME280;34247;50.064;19.970;2023-02-03T05:50:44;99720.88;;;1.83;83.98
21086;BME280;34247;50.064;19.970;2023-02-03T05:51:52;99718.25;;;1.83;83.61
21086;BME280;34247;50.064;19.970;2023-02-03T05:52:59;99719.94;;;1.86;83.58
21086;BME280;34247;50.064;19.970;2023-02-03T05:54:06;99720.72;;;1.88;83.33
21086;BME280;34247;50.064;19.970;2023-02-03T05:55:19;99722.53;;;1.86;83.29
21086;BME280;34247;50.064;19.970;2023-02-03T05:56:32;99727.72;;;1.87;83.12
21086;BME280;34247;50.064;19.970;2023-02-03T05:57:36;99721.94;;;1.76;83.74
21086;BME280;34247;50.064;19.970;2023-02-03T05:58:43;99718.31;;;1.82;83.86
21086;BME280;34247;50.064;19.970;2023-02-03T05:59:49;99712.03;;;1.87;83.54
21086;BME280;34247;50.064;19.970;2023-02-03T06:00:55;99708.50;;;1.90;83.37
21086;BME280;34247;50.064;19.970;2023-02-03T06:02:00;99711.88;;;1.93;83.42
21086;BME280;34247;50.064;19.970;2023-02-03T06:03:14;99708.38;;;1.93;83.45
21086;BME280;34247;50.064;19.970;2023-02-03T06:04:20;99711.16;;;1.88;83.09
21086;BME280;34247;50.064;19.970;2023-02-03T06:05:28;99698.94;;;1.87;83.16
21086;BME280;34247;50.064;19.970;2023-02-03T06:06:35;99711.22;;;1.85;83.42
21086;BME280;34247;50.064;19.970;2023-02-03T06:07:49;99705.28;;;1.79;83.42
21086;BME280;34247;50.064;19.970;2023-02-03T06:08:55;99706.13;;;1.79;83.42
21086;BME280;34247;50.064;19.970;2023-02-03T06:09:59;99708.69;;;1.81;83.66
21086;BME280;34247;50.064;19.970;2023-02-03T06:11:07;99702.50;;;1.85;83.47
21086;BME280;34247;50.064;19.970;2023-02-03T06:12:11;99703.59;;;1.76;83.79
21086;BME280;34247;50.064;19.970;2023-02-03T06:13:22;99703.72;;;1.72;83.78
21086;BME280;34247;50.064;19.970;2023-02-03T06:14:37;99702.94;;;1.68;84.03
21086;BME280;34247;50.064;19.970;2023-02-03T06:15:46;99691.63;;;1.66;84.19
21086;BME280;34247;50.064;19.970;2023-02-03T06:16:53;99690.56;;;1.73;84.17
21086;BME280;34247;50.064;19.970;2023-02-03T06:17:58;99677.34;;;1.79;83.78
21086;BME280;34247;50.064;19.970;2023-02-03T06:19:05;99681.66;;;1.82;84.00
21086;BME280;34247;50.064;19.970;2023-02-03T06:20:16;99670.22;;;1.84;83.63
21086;BME280;34247;50.064;19.970;2023-02-03T06:21:22;99666.72;;;1.85;83.29
21086;BME280;34247;50.064;19.970;2023-02-03T06:22:29;99670.97;;;1.89;83.49
21086;BME280;34247;50.064;19.970;2023-02-03T06:23:33;99670.97;;;1.89;83.22
21086;BME280;34247;50.064;19.970;2023-02-03T06:24:38;99670.13;;;1.87;83.49
21086;BME280;34247;50.064;19.970;2023-02-03T06:25:50;99660.63;;;1.85;83.38
21086;BME280;34247;50.064;19.970;2023-02-03T06:27:15;99662.53;;;1.78;83.32
21086;BME280;34247;50.064;19.970;2023-02-03T06:28:23;99665.25;;;1.75;83.50
21086;BME280;34247;50.064;19.970;2023-02-03T06:29:28;99660.97;;;1.71;83.58
21086;BME280;34247;50.064;19.970;2023-02-03T06:30:33;99668.78;;;1.74;83.46
21086;BME280;34247;50.064;19.970;2023-02-03T06:31:38;99666.97;;;1.76;83.26
21086;BME280;34247;50.064;19.970;2023-02-03T06:32:45;99662.47;;;1.81;83.34
21086;BME280;34247;50.064;19.970;2023-02-03T06:33:51;99659.13;;;1.76;83.24
21086;BME280;34247;50.064;19.970;2023-02-03T06:34:59;99656.41;;;1.79;83.31
21086;BME280;34247;50.064;19.970;2023-02-03T06:36:04;99654.47;;;1.86;83.40
21086;BME280;34247;50.064;19.970;2023-02-03T06:37:14;99651.00;;;1.85;83.10
21086;BME280;34247;50.064;19.970;2023-02-03T06:38:23;99650.09;;;1.86;82.81
21086;BME280;34247;50.064;19.970;2023-02-03T06:39:31;99653.56;;;1.88;82.75
21086;BME280;34247;50.064;19.970;2023-02-03T06:40:40;99650.19;;;1.83;82.97
21086;BME280;34247;50.064;19.970;2023-02-03T06:41:47;99657.88;;;1.89;82.84
21086;BME280;34247;50.064;19.970;2023-02-03T06:42:53;99650.09;;;1.86;82.96